createdAt,value
2023-02-11T00:00:06.609Z,960.62
2023-02-11T00:01:06.606Z,960.67
2023-02-11T00:02:06.689Z,960.66
2023-02-11T00:03:06.587Z,960.66
2023-02-11T00:04:06.589Z,960.72
2023-02-11T00:05:06.550Z,960.74
2023-02-11T00:06:06.992Z,960.74
2023-02-11T00:07:07.453Z,960.77
2023-02-11T00:08:06.527Z,960.83
2023-02-11T00:09:06.605Z,960.80
2023-02-11T00:10:06.686Z,960.85
2023-02-11T00:11:06.832Z,960.87
2023-02-11T00:12:06.494Z,960.82
2023-02-11T00:13:06.465Z,960.84
2023-02-11T00:14:06.501Z,960.86
2023-02-11T00:15:06.446Z,960.82
2023-02-11T00:16:06.449Z,960.84
2023-02-11T00:17:06.423Z,960.90
2023-02-11T00:18:06.412Z,960.92
2023-02-11T00:19:06.395Z,960.94
2023-02-11T00:20:08.214Z,960.95
2023-02-11T00:21:06.408Z,960.92
2023-02-11T00:22:06.354Z,960.95
2023-02-11T00:23:06.496Z,961.01
2023-02-11T00:24:06.332Z,961.01
2023-02-11T00:25:06.316Z,960.99
2023-02-11T00:26:06.336Z,961.01
2023-02-11T00:27:06.304Z,961.05
2023-02-11T00:28:06.397Z,961.06
2023-02-11T00:29:06.320Z,961.10
2023-02-11T00:30:06.311Z,961.13
2023-02-11T00:31:07.565Z,961.14
2023-02-11T00:32:06.509Z,961.17
2023-02-11T00:33:07.222Z,961.20
2023-02-11T00:34:06.758Z,961.22
2023-02-11T00:35:06.297Z,961.24
2023-02-11T00:36:07.697Z,961.22
2023-02-11T00:37:06.213Z,961.26
2023-02-11T00:38:06.211Z,961.27
2023-02-11T00:39:06.223Z,961.24
2023-02-11T00:40:06.871Z,961.31
2023-02-11T00:41:06.246Z,961.31
2023-02-11T00:42:06.328Z,961.31
2023-02-11T00:43:06.142Z,961.26
2023-02-11T00:44:06.118Z,961.26
2023-02-11T00:45:06.090Z,961.29
2023-02-11T00:46:06.198Z,961.34
2023-02-11T00:47:06.093Z,961.33
2023-02-11T00:48:06.075Z,961.31
2023-02-11T00:49:06.092Z,961.31
2023-02-11T00:50:06.041Z,961.34
2023-02-11T00:51:06.049Z,961.39
2023-02-11T00:52:06.144Z,961.43
2023-02-11T00:53:06.131Z,961.46
2023-02-11T00:54:06.035Z,961.45
2023-02-11T00:55:06.000Z,961.45
2023-02-11T00:56:05.976Z,961.48
2023-02-11T00:57:06.009Z,961.47
2023-02-11T00:58:07.405Z,961.53
2023-02-11T00:59:05.977Z,961.55
2023-02-11T01:00:05.936Z,961.58
2023-02-11T01:01:05.990Z,961.61
2023-02-11T01:02:05.919Z,961.70
2023-02-11T01:03:05.919Z,961.71
2023-02-11T01:04:05.921Z,961.70
2023-02-11T01:05:05.973Z,961.70
2023-02-11T01:06:05.872Z,961.78
2023-02-11T01:07:05.890Z,961.75
2023-02-11T01:08:05.906Z,961.75
2023-02-11T01:09:05.851Z,961.75
2023-02-11T01:10:06.542Z,961.81
2023-02-11T01:11:05.842Z,961.80
2023-02-11T01:12:05.812Z,961.77
2023-02-11T01:13:05.865Z,961.75
2023-02-11T01:14:05.845Z,961.82
2023-02-11T01:15:05.819Z,961.83
2023-02-11T01:16:05.810Z,961.86
2023-02-11T01:17:06.101Z,961.89
2023-02-11T01:18:05.832Z,961.96
2023-02-11T01:19:05.908Z,962.02
2023-02-11T01:20:05.779Z,962.01
2023-02-11T01:21:05.756Z,962.02
2023-02-11T01:22:05.728Z,961.99
2023-02-11T01:23:05.743Z,962.04
2023-02-11T01:24:05.842Z,962.10
2023-02-11T01:25:06.091Z,962.10
2023-02-11T01:26:05.874Z,962.12
2023-02-11T01:27:05.649Z,962.09
2023-02-11T01:28:05.809Z,962.06
2023-02-11T01:29:06.581Z,962.13
2023-02-11T01:30:06.119Z,962.15
2023-02-11T01:31:05.925Z,962.14
2023-02-11T01:32:05.883Z,962.13
2023-02-11T01:33:05.851Z,962.15
2023-02-11T01:34:05.579Z,962.17
2023-02-11T01:35:05.894Z,962.23
2023-02-11T01:36:05.870Z,962.19
2023-02-11T01:37:05.554Z,962.20
2023-02-11T01:38:05.562Z,962.25
2023-02-11T01:39:05.528Z,962.25
2023-02-11T01:40:06.109Z,962.29
2023-02-11T01:41:05.726Z,962.27
2023-02-11T01:42:05.511Z,962.26
2023-02-11T01:43:18.065Z,962.30
2023-02-11T01:44:05.496Z,962.37
2023-02-11T01:45:05.527Z,962.34
2023-02-11T01:46:05.691Z,962.43
2023-02-11T01:47:05.608Z,962.47
2023-02-11T01:48:05.509Z,962.45
2023-02-11T01:49:05.679Z,962.47
2023-02-11T01:50:05.681Z,962.47
2023-02-11T01:51:05.556Z,962.52
2023-02-11T01:52:05.599Z,962.53
2023-02-11T01:53:05.607Z,962.60
2023-02-11T01:54:05.361Z,962.54
2023-02-11T01:55:06.397Z,962.60
2023-02-11T01:56:05.607Z,962.59
2023-02-11T01:57:05.449Z,962.64
2023-02-11T01:58:05.370Z,962.68
2023-02-11T01:59:05.335Z,962.68
2023-02-11T02:00:05.306Z,962.71
2023-02-11T02:01:05.298Z,962.73
2023-02-11T02:02:05.325Z,962.82
2023-02-11T02:03:05.290Z,962.85
2023-02-11T02:04:05.250Z,962.87
2023-02-11T02:05:05.270Z,962.86
2023-02-11T02:06:05.243Z,962.91
2023-02-11T02:07:05.360Z,962.92
2023-02-11T02:08:05.267Z,962.96
2023-02-11T02:09:05.203Z,962.95
2023-02-11T02:10:05.207Z,962.99
2023-02-11T02:11:05.194Z,963.04
2023-02-11T02:12:05.182Z,963.07
2023-02-11T02:13:05.197Z,963.04
2023-02-11T02:14:05.436Z,963.05
2023-02-11T02:15:05.647Z,963.05
2023-02-11T02:16:06.694Z,963.09
2023-02-11T02:17:05.474Z,963.10
2023-02-11T02:18:05.212Z,963.13
2023-02-11T02:19:05.110Z,963.16
2023-02-11T02:20:05.329Z,963.14
2023-02-11T02:21:05.396Z,963.17
2023-02-11T02:22:05.111Z,963.21
2023-02-11T02:23:05.103Z,963.22
2023-02-11T02:24:05.064Z,963.22
2023-02-11T02:25:05.044Z,963.21
2023-02-11T02:26:05.138Z,963.20
2023-02-11T02:27:07.155Z,963.28
2023-02-11T02:28:05.096Z,963.33
2023-02-11T02:29:05.016Z,963.33
2023-02-11T02:30:04.951Z,963.33
2023-02-11T02:31:05.105Z,963.37
2023-02-11T02:32:04.952Z,963.32
2023-02-11T02:33:20.570Z,963.32
2023-02-11T02:34:04.966Z,963.33
2023-02-11T02:35:04.962Z,963.36
2023-02-11T02:36:04.928Z,963.40
2023-02-11T02:37:04.874Z,963.46
2023-02-11T02:38:05.065Z,963.50
2023-02-11T02:39:05.062Z,963.47
2023-02-11T02:40:04.966Z,963.52
2023-02-11T02:41:05.023Z,963.59
2023-02-11T02:42:05.274Z,963.58
2023-02-11T02:43:04.924Z,963.58
2023-02-11T02:44:04.979Z,963.57
2023-02-11T02:45:04.877Z,963.64
2023-02-11T02:46:04.795Z,963.64
2023-02-11T02:47:04.821Z,963.63
2023-02-11T02:48:04.780Z,963.68
2023-02-11T02:49:04.742Z,963.74
2023-02-11T02:50:04.754Z,963.74
2023-02-11T02:51:04.753Z,963.75
2023-02-11T02:52:04.755Z,963.91
2023-02-11T02:53:04.719Z,963.86
2023-02-11T02:54:04.707Z,963.85
2023-02-11T02:55:04.703Z,963.89
2023-02-11T02:56:04.708Z,963.91
2023-02-11T02:57:04.850Z,963.96
2023-02-11T02:58:04.708Z,963.95
2023-02-11T02:59:04.646Z,964.01
2023-02-11T03:00:04.637Z,964.08
2023-02-11T03:01:04.684Z,964.06
2023-02-11T03:02:04.672Z,964.13
2023-02-11T03:03:04.868Z,964.15
2023-02-11T03:04:04.778Z,964.17
2023-02-11T03:05:04.935Z,964.13
2023-02-11T03:06:04.596Z,964.08
2023-02-11T03:07:04.688Z,964.06
2023-02-11T03:08:04.758Z,964.11
2023-02-11T03:09:04.640Z,964.07
2023-02-11T03:10:04.550Z,964.11
2023-02-11T03:11:04.560Z,964.14
2023-02-11T03:12:04.507Z,964.16
2023-02-11T03:13:04.549Z,964.14
2023-02-11T03:14:04.503Z,964.19
2023-02-11T03:15:04.496Z,964.18
2023-02-11T03:16:04.520Z,964.24
2023-02-11T03:17:04.465Z,964.29
2023-02-11T03:18:04.440Z,964.33
2023-02-11T03:19:04.446Z,964.33
2023-02-11T03:20:04.457Z,964.38
2023-02-11T03:21:04.498Z,964.44
2023-02-11T03:22:04.461Z,964.40
2023-02-11T03:23:04.414Z,964.43
2023-02-11T03:24:04.404Z,964.46
2023-02-11T03:25:04.476Z,964.47
2023-02-11T03:26:04.346Z,964.48
2023-02-11T03:27:04.394Z,964.53
2023-02-11T03:28:04.624Z,964.56
2023-02-11T03:29:04.318Z,964.60
2023-02-11T03:30:04.368Z,964.62
2023-02-11T03:31:04.579Z,964.65
2023-02-11T03:32:04.591Z,964.66
2023-02-11T03:33:04.318Z,964.65
2023-02-11T03:34:04.288Z,964.69
2023-02-11T03:35:04.271Z,964.71
2023-02-11T03:36:04.278Z,964.73
2023-02-11T03:37:04.310Z,964.80
2023-02-11T03:38:04.254Z,964.80
2023-02-11T03:39:04.247Z,964.78
2023-02-11T03:40:04.224Z,964.83
2023-02-11T03:41:04.211Z,964.86
2023-02-11T03:42:04.225Z,964.91
2023-02-11T03:43:04.500Z,964.99
2023-02-11T03:44:04.330Z,964.99
2023-02-11T03:45:04.203Z,964.97
2023-02-11T03:46:04.234Z,964.98
2023-02-11T03:47:04.146Z,965.00
2023-02-11T03:48:04.976Z,964.98
2023-02-11T03:49:04.185Z,965.06
2023-02-11T03:50:04.112Z,965.07
2023-02-11T03:51:04.085Z,965.09
2023-02-11T03:52:04.084Z,965.13
2023-02-11T03:53:04.123Z,965.20
2023-02-11T03:54:04.071Z,965.26
2023-02-11T03:55:04.095Z,965.27
2023-02-11T03:56:04.070Z,965.28
2023-02-11T03:57:04.057Z,965.35
2023-02-11T03:58:04.306Z,965.40
2023-02-11T03:59:04.287Z,965.35
2023-02-11T04:00:04.229Z,965.43
2023-02-11T04:01:04.415Z,965.48
2023-02-11T04:02:03.998Z,965.59
2023-02-11T04:03:04.047Z,965.61
2023-02-11T04:04:03.938Z,965.63
2023-02-11T04:05:03.948Z,965.64
2023-02-11T04:06:03.962Z,965.66
2023-02-11T04:07:03.921Z,965.71
2023-02-11T04:08:03.894Z,965.70
2023-02-11T04:09:03.888Z,965.67
2023-02-11T04:10:03.896Z,965.72
2023-02-11T04:11:03.870Z,965.74
2023-02-11T04:12:03.884Z,965.76
2023-02-11T04:13:03.900Z,965.78
2023-02-11T04:14:03.857Z,965.82
2023-02-11T04:15:03.869Z,965.88
2023-02-11T04:16:03.896Z,965.92
2023-02-11T04:17:03.802Z,965.94
2023-02-11T04:18:03.808Z,965.99
2023-02-11T04:19:03.819Z,965.95
2023-02-11T04:20:03.834Z,966.02
2023-02-11T04:21:03.782Z,966.03
2023-02-11T04:22:03.761Z,966.06
2023-02-11T04:23:03.790Z,966.09
2023-02-11T04:24:03.732Z,966.08
2023-02-11T04:25:03.738Z,966.13
2023-02-11T04:26:03.733Z,966.10
2023-02-11T04:27:03.708Z,966.21
2023-02-11T04:28:03.786Z,966.23
2023-02-11T04:29:03.676Z,966.23
2023-02-11T04:30:03.688Z,966.27
2023-02-11T04:31:03.777Z,966.31
2023-02-11T04:32:03.706Z,966.28
2023-02-11T04:33:03.685Z,966.30
2023-02-11T04:34:03.631Z,966.35
2023-02-11T04:35:03.634Z,966.33
2023-02-11T04:36:03.601Z,966.43
2023-02-11T04:37:03.590Z,966.54
2023-02-11T04:38:03.627Z,966.47
2023-02-11T04:39:03.598Z,966.60
2023-02-11T04:40:03.548Z,966.52
2023-02-11T04:41:03.538Z,966.58
2023-02-11T04:42:03.570Z,966.55
2023-02-11T04:43:03.520Z,966.57
2023-02-11T04:45:53.424Z,966.63
2023-02-11T04:46:53.287Z,966.64
2023-02-11T04:47:53.304Z,966.67
2023-02-11T04:48:53.264Z,966.74
2023-02-11T04:49:53.245Z,966.76
2023-02-11T04:50:53.231Z,966.79
2023-02-11T04:51:53.271Z,966.90
2023-02-11T04:52:53.229Z,966.91
2023-02-11T04:53:53.222Z,966.92
2023-02-11T04:54:53.222Z,966.91
2023-02-11T04:55:53.467Z,966.94
2023-02-11T04:56:53.180Z,966.96
2023-02-11T04:57:53.222Z,966.97
2023-02-11T04:58:53.194Z,967.06
2023-02-11T04:59:53.203Z,967.08
2023-02-11T05:00:53.159Z,967.04
2023-02-11T05:01:53.122Z,967.06
2023-02-11T05:02:53.150Z,967.03
2023-02-11T05:03:53.351Z,967.04
2023-02-11T05:04:53.091Z,967.02
2023-02-11T05:05:53.377Z,967.06
2023-02-11T05:06:53.171Z,967.04
2023-02-11T05:07:53.057Z,967.10
2023-02-11T05:08:53.049Z,967.12
2023-02-11T05:09:53.068Z,967.20
2023-02-11T05:10:53.057Z,967.27
2023-02-11T05:11:53.011Z,967.28
2023-02-11T05:12:55.716Z,967.25
2023-02-11T05:13:53.018Z,967.29
2023-02-11T05:14:53.030Z,967.31
2023-02-11T05:15:53.208Z,967.30
2023-02-11T05:16:53.039Z,967.39
2023-02-11T05:17:52.976Z,967.37
2023-02-11T05:18:52.935Z,967.44
2023-02-11T05:19:52.966Z,967.42
2023-02-11T05:20:52.928Z,967.49
2023-02-11T05:22:02.190Z,967.53
2023-02-11T05:22:52.944Z,967.48
2023-02-11T05:23:52.883Z,967.53
2023-02-11T05:24:52.879Z,967.57
2023-02-11T05:25:53.044Z,967.61
2023-02-11T05:26:52.841Z,967.68
2023-02-11T05:27:52.842Z,967.77
2023-02-11T05:28:52.865Z,967.85
2023-02-11T05:29:52.808Z,967.78
2023-02-11T05:30:52.979Z,967.89
2023-02-11T05:31:52.788Z,967.87
2023-02-11T05:32:52.787Z,967.99
2023-02-11T05:33:52.782Z,967.97
2023-02-11T05:34:52.798Z,968.02
2023-02-11T05:35:52.952Z,968.03
2023-02-11T05:36:52.753Z,968.04
2023-02-11T05:37:52.734Z,967.98
2023-02-11T05:38:52.750Z,968.04
2023-02-11T05:39:52.740Z,968.08
2023-02-11T05:40:52.707Z,968.11
2023-02-11T05:41:52.783Z,968.16
2023-02-11T05:42:52.685Z,968.17
2023-02-11T05:43:52.672Z,968.18
2023-02-11T05:44:52.645Z,968.20
2023-02-11T05:45:53.033Z,968.23
2023-02-11T05:46:52.619Z,968.21
2023-02-11T05:47:52.643Z,968.29
2023-02-11T05:48:52.633Z,968.27
2023-02-11T05:49:52.646Z,968.34
2023-02-11T05:50:52.588Z,968.43
2023-02-11T05:51:52.658Z,968.44
2023-02-11T05:52:52.586Z,968.44
2023-02-11T05:53:52.607Z,968.54
2023-02-11T05:54:52.585Z,968.54
2023-02-11T05:55:52.925Z,968.61
2023-02-11T05:56:52.551Z,968.74
2023-02-11T05:57:52.546Z,968.75
2023-02-11T05:58:52.531Z,968.80
2023-02-11T05:59:52.506Z,968.76
2023-02-11T06:00:52.532Z,968.80
2023-02-11T06:01:52.482Z,968.82
2023-02-11T06:02:52.478Z,968.86
2023-02-11T06:03:52.516Z,968.86
2023-02-11T06:04:52.449Z,968.91
2023-02-11T06:05:52.743Z,968.87
2023-02-11T06:06:52.433Z,968.92
2023-02-11T06:07:52.440Z,968.96
2023-02-11T06:08:52.392Z,969.04
2023-02-11T06:09:52.420Z,969.03
2023-02-11T06:10:52.372Z,969.07
2023-02-11T06:11:52.376Z,969.09
2023-02-11T06:12:52.374Z,969.19
2023-02-11T06:13:52.360Z,969.21
2023-02-11T06:14:52.338Z,969.25
2023-02-11T06:15:52.783Z,969.27
2023-02-11T06:16:52.340Z,969.25
2023-02-11T06:17:52.311Z,969.34
2023-02-11T06:18:52.318Z,969.34
2023-02-11T06:19:52.287Z,969.41
2023-02-11T06:20:52.279Z,969.35
2023-02-11T06:21:52.287Z,969.41
2023-02-11T06:22:52.261Z,969.42
2023-02-11T06:23:52.241Z,969.49
2023-02-11T06:25:01.339Z,969.55
2023-02-11T06:25:52.567Z,969.56
2023-02-11T06:26:52.222Z,969.58
2023-02-11T06:27:52.220Z,969.63
2023-02-11T06:28:52.198Z,969.73
2023-02-11T06:29:52.193Z,969.72
2023-02-11T06:30:52.222Z,969.67
2023-02-11T06:31:52.271Z,969.77
2023-02-11T06:32:52.220Z,969.71
2023-02-11T06:33:52.143Z,969.74
2023-02-11T06:34:52.150Z,969.70
2023-02-11T06:35:52.479Z,969.73
2023-02-11T06:36:52.158Z,969.71
2023-02-11T06:37:52.100Z,969.75
2023-02-11T06:38:52.082Z,969.74
2023-02-11T06:39:52.079Z,969.77
2023-02-11T06:40:52.065Z,969.85
2023-02-11T06:41:52.057Z,969.94
2023-02-11T06:42:52.062Z,969.95
2023-02-11T06:43:52.039Z,969.99
2023-02-11T06:44:52.030Z,970.06
2023-02-11T06:45:52.308Z,970.09
2023-02-11T06:46:52.046Z,970.10
2023-02-11T06:47:52.014Z,970.13
2023-02-11T06:48:51.983Z,970.20
2023-02-11T06:49:51.979Z,970.21
2023-02-11T06:50:51.969Z,970.21
2023-02-11T06:51:51.956Z,970.27
2023-02-11T06:52:51.974Z,970.31
2023-02-11T06:53:51.932Z,970.37
2023-02-11T06:54:51.915Z,970.39
2023-02-11T06:55:52.217Z,970.41
2023-02-11T06:56:51.909Z,970.42
2023-02-11T06:57:51.892Z,970.46
2023-02-11T06:58:51.900Z,970.46
2023-02-11T06:59:51.869Z,970.53
2023-02-11T07:00:51.844Z,970.56
2023-02-11T07:01:51.951Z,970.60
2023-02-11T07:02:51.885Z,970.62
2023-02-11T07:03:51.853Z,970.62
2023-02-11T07:04:51.810Z,970.66
2023-02-11T07:05:52.165Z,970.71
2023-02-11T07:06:51.806Z,970.65
2023-02-11T07:07:51.803Z,970.70
2023-02-11T07:08:51.786Z,970.75
2023-02-11T07:09:51.780Z,970.77
2023-02-11T07:10:51.756Z,970.80
2023-02-11T07:11:51.763Z,970.87
2023-02-11T07:12:51.722Z,970.88
2023-02-11T07:13:51.718Z,970.96
2023-02-11T07:14:51.750Z,970.98
2023-02-11T07:15:52.098Z,971.00
2023-02-11T07:16:51.719Z,971.02
2023-02-11T07:17:51.668Z,971.00
2023-02-11T07:18:51.655Z,971.05
2023-02-11T07:19:51.702Z,971.10
2023-02-11T07:20:51.669Z,971.14
2023-02-11T07:21:51.634Z,971.15
2023-02-11T07:22:51.629Z,971.17
2023-02-11T07:23:51.634Z,971.18
2023-02-11T07:24:51.624Z,971.25
2023-02-11T07:25:51.891Z,971.37
2023-02-11T07:26:51.600Z,971.36
2023-02-11T07:27:51.581Z,971.45
2023-02-11T07:28:51.557Z,971.48
2023-02-11T07:29:51.556Z,971.49
2023-02-11T07:30:51.590Z,971.54
2023-02-11T07:31:51.661Z,971.51
2023-02-11T07:32:51.530Z,971.57
2023-02-11T07:33:51.506Z,971.64
2023-02-11T07:34:51.670Z,971.68
2023-02-11T07:35:51.818Z,971.67
2023-02-11T07:36:51.573Z,971.74
2023-02-11T07:37:51.472Z,971.78
2023-02-11T07:38:51.449Z,971.80
2023-02-11T07:39:51.446Z,971.84
2023-02-11T07:40:51.447Z,971.82
2023-02-11T07:41:51.421Z,971.87
2023-02-11T07:42:51.421Z,971.88
2023-02-11T07:43:51.410Z,971.91
2023-02-11T07:44:51.391Z,971.97
2023-02-11T07:45:51.680Z,971.96
2023-02-11T07:46:51.478Z,972.04
2023-02-11T07:47:51.360Z,972.03
2023-02-11T07:48:51.417Z,972.08
2023-02-11T07:49:51.856Z,972.11
2023-02-11T07:50:51.348Z,972.13
2023-02-11T07:51:51.423Z,972.15
2023-02-11T07:52:51.343Z,972.17
2023-02-11T07:53:51.361Z,972.16
2023-02-11T07:54:51.292Z,972.20
2023-02-11T07:55:51.697Z,972.16
2023-02-11T07:56:51.277Z,972.18
2023-02-11T07:57:51.253Z,972.20
2023-02-11T07:58:51.245Z,972.22
2023-02-11T07:59:51.281Z,972.24
2023-02-11T08:00:51.246Z,972.24
2023-02-11T08:01:51.256Z,972.19
2023-02-11T08:02:51.213Z,972.17
2023-02-11T08:03:51.217Z,972.28
2023-02-11T08:04:51.279Z,972.20
2023-02-11T08:05:51.496Z,972.28
2023-02-11T08:06:51.156Z,972.26
2023-02-11T08:07:51.159Z,972.31
2023-02-11T08:08:51.167Z,972.35
2023-02-11T08:09:51.120Z,972.37
2023-02-11T08:10:51.448Z,972.41
2023-02-11T08:11:51.106Z,972.48
2023-02-11T08:12:51.118Z,972.43
2023-02-11T08:13:51.107Z,972.47
2023-02-11T08:14:51.090Z,972.45
2023-02-11T08:15:51.520Z,972.51
2023-02-11T08:16:51.146Z,972.47
2023-02-11T08:17:51.045Z,972.47
2023-02-11T08:18:51.036Z,972.52
2023-02-11T08:19:51.015Z,972.53
2023-02-11T08:20:51.337Z,972.55
2023-02-11T08:21:51.033Z,972.61
2023-02-11T08:22:50.986Z,972.62
2023-02-11T08:23:50.978Z,972.64
2023-02-11T08:24:52.441Z,972.64
2023-02-11T08:25:50.977Z,972.65
2023-02-11T08:26:50.956Z,972.65
2023-02-11T08:27:50.963Z,972.67
2023-02-11T08:28:50.958Z,972.63
2023-02-11T08:29:50.911Z,972.67
2023-02-11T08:30:51.189Z,972.70
2023-02-11T08:31:50.962Z,972.69
2023-02-11T08:32:50.907Z,972.70
2023-02-11T08:33:50.878Z,972.76
2023-02-11T08:34:50.856Z,972.73
2023-02-11T08:35:50.852Z,972.77
2023-02-11T08:36:50.861Z,972.78
2023-02-11T08:37:50.829Z,972.88
2023-02-11T08:38:50.851Z,972.90
2023-02-11T08:39:50.807Z,972.95
2023-02-11T08:40:50.991Z,973.00
2023-02-11T08:41:50.858Z,973.02
2023-02-11T08:42:50.783Z,973.13
2023-02-11T08:43:50.761Z,973.04
2023-02-11T08:44:50.762Z,973.05
2023-02-11T08:45:51.055Z,973.07
2023-02-11T08:46:50.762Z,973.14
2023-02-11T08:47:50.735Z,973.14
2023-02-11T08:48:50.728Z,973.15
2023-02-11T08:49:50.703Z,973.12
2023-02-11T08:50:50.693Z,973.14
2023-02-11T08:51:50.678Z,973.22
2023-02-11T08:52:50.674Z,973.23
2023-02-11T08:53:50.658Z,973.26
2023-02-11T08:54:50.644Z,973.24
2023-02-11T08:55:50.943Z,973.32
2023-02-11T08:56:50.617Z,973.28
2023-02-11T08:57:50.686Z,973.29
2023-02-11T08:58:50.598Z,973.31
2023-02-11T08:59:50.586Z,973.35
2023-02-11T09:00:51.105Z,973.37
2023-02-11T09:01:50.638Z,973.36
2023-02-11T09:02:50.563Z,973.39
2023-02-11T09:03:50.566Z,973.41
2023-02-11T09:04:50.541Z,973.47
2023-02-11T09:05:50.692Z,973.49
2023-02-11T09:06:50.510Z,973.52
2023-02-11T09:07:50.528Z,973.51
2023-02-11T09:08:50.532Z,973.57
2023-02-11T09:09:50.526Z,973.62
2023-02-11T09:10:50.823Z,973.67
2023-02-11T09:11:50.825Z,973.69
2023-02-11T09:12:50.462Z,973.76
2023-02-11T09:13:53.276Z,973.75
2023-02-11T09:14:50.442Z,973.78
2023-02-11T09:15:50.419Z,973.79
2023-02-11T09:16:50.534Z,973.83
2023-02-11T09:17:50.394Z,973.83
2023-02-11T09:18:50.390Z,973.85
2023-02-11T09:19:50.399Z,973.81
2023-02-11T09:20:50.768Z,973.89
2023-02-11T09:21:50.346Z,973.86
2023-02-11T09:22:50.360Z,973.89
2023-02-11T09:23:50.585Z,973.84
2023-02-11T09:24:50.348Z,973.91
2023-02-11T09:25:50.591Z,973.91
2023-02-11T09:26:50.313Z,973.99
2023-02-11T09:27:50.286Z,973.93
2023-02-11T09:28:50.314Z,973.94
2023-02-11T09:29:50.300Z,974.00
2023-02-11T09:30:50.766Z,974.00
2023-02-11T09:31:50.684Z,974.05
2023-02-11T09:32:50.248Z,974.09
2023-02-11T09:33:50.263Z,974.09
2023-02-11T09:34:50.219Z,974.14
2023-02-11T09:35:50.211Z,974.19
2023-02-11T09:36:50.208Z,974.18
2023-02-11T09:37:50.207Z,974.21
2023-02-11T09:38:50.168Z,974.23
2023-02-11T09:39:50.183Z,974.26
2023-02-11T09:40:50.534Z,974.30
2023-02-11T09:41:50.144Z,974.28
2023-02-11T09:42:50.125Z,974.31
2023-02-11T09:43:50.135Z,974.36
2023-02-11T09:44:50.127Z,974.36
2023-02-11T09:45:51.092Z,974.43
2023-02-11T09:46:50.088Z,974.41
2023-02-11T09:47:50.085Z,974.45
2023-02-11T09:48:50.082Z,974.49
2023-02-11T09:49:50.092Z,974.49
2023-02-11T09:50:50.372Z,974.51
2023-02-11T09:51:50.899Z,974.48
2023-02-11T09:52:50.028Z,974.57
2023-02-11T09:53:50.032Z,974.53
2023-02-11T09:54:49.993Z,974.64
2023-02-11T09:55:50.028Z,974.58
2023-02-11T09:56:49.993Z,974.65
2023-02-11T09:57:49.982Z,974.71
2023-02-11T09:58:49.971Z,974.69
2023-02-11T09:59:49.952Z,974.77
2023-02-11T10:00:50.392Z,974.81
2023-02-11T10:01:49.961Z,974.79
2023-02-11T10:02:49.939Z,974.81
2023-02-11T10:03:49.925Z,974.84
2023-02-11T10:04:49.899Z,974.85
2023-02-11T10:05:49.877Z,974.98
2023-02-11T10:06:49.893Z,974.95
2023-02-11T10:07:49.866Z,974.96
2023-02-11T10:08:49.890Z,975.03
2023-02-11T10:09:49.840Z,975.03
2023-02-11T10:10:50.216Z,975.13
2023-02-11T10:11:49.829Z,975.04
2023-02-11T10:12:49.810Z,975.07
2023-02-11T10:13:49.825Z,975.03
2023-02-11T10:14:49.800Z,975.03
2023-02-11T10:15:49.843Z,975.07
2023-02-11T10:16:49.897Z,975.09
2023-02-11T10:17:49.787Z,975.09
2023-02-11T10:18:49.774Z,975.09
2023-02-11T10:19:49.773Z,975.14
2023-02-11T10:20:50.193Z,975.15
2023-02-11T10:21:49.775Z,975.18
2023-02-11T10:22:49.725Z,975.21
2023-02-11T10:23:49.703Z,975.26
2023-02-11T10:24:49.731Z,975.26
2023-02-11T10:25:49.712Z,975.31
2023-02-11T10:26:49.695Z,975.33
2023-02-11T10:27:49.665Z,975.35
2023-02-11T10:28:49.651Z,975.44
2023-02-11T10:29:49.638Z,975.42
2023-02-11T10:30:50.153Z,975.46
2023-02-11T10:31:49.687Z,975.45
2023-02-11T10:32:49.607Z,975.48
2023-02-11T10:33:49.605Z,975.48
2023-02-11T10:34:49.593Z,975.47
2023-02-11T10:35:49.561Z,975.50
2023-02-11T10:36:49.579Z,975.50
2023-02-11T10:37:49.549Z,975.53
2023-02-11T10:38:49.572Z,975.57
2023-02-11T10:39:49.537Z,975.56
2023-02-11T10:40:49.894Z,975.60
2023-02-11T10:41:49.509Z,975.61
2023-02-11T10:42:49.558Z,975.61
2023-02-11T10:43:49.507Z,975.67
2023-02-11T10:44:49.470Z,975.64
2023-02-11T10:45:49.468Z,975.60
2023-02-11T10:46:49.516Z,975.65
2023-02-11T10:47:49.444Z,975.65
2023-02-11T10:48:49.475Z,975.73
2023-02-11T10:49:49.424Z,975.69
2023-02-11T10:50:49.701Z,975.71
2023-02-11T10:51:49.393Z,975.75
2023-02-11T10:52:49.376Z,975.73
2023-02-11T10:53:49.387Z,975.75
2023-02-11T10:54:49.357Z,975.73
2023-02-11T10:55:49.351Z,975.81
2023-02-11T10:56:49.370Z,975.80
2023-02-11T10:57:49.354Z,975.88
2023-02-11T10:58:49.340Z,975.89
2023-02-11T10:59:49.326Z,975.87
2023-02-11T11:00:49.717Z,975.86
2023-02-11T11:01:49.366Z,975.86
2023-02-11T11:02:50.065Z,975.87
2023-02-11T11:03:49.260Z,975.85
2023-02-11T11:04:49.401Z,975.90
2023-02-11T11:05:49.278Z,975.91
2023-02-11T11:06:49.227Z,975.91
2023-02-11T11:07:49.949Z,975.92
2023-02-11T11:08:49.236Z,975.91
2023-02-11T11:09:49.251Z,975.95
2023-02-11T11:10:49.564Z,975.94
2023-02-11T11:11:49.177Z,975.93
2023-02-11T11:12:49.234Z,975.93
2023-02-11T11:13:49.219Z,975.95
2023-02-11T11:14:49.154Z,976.01
2023-02-11T11:15:49.314Z,975.99
2023-02-11T11:16:49.163Z,976.00
2023-02-11T11:17:49.122Z,975.99
2023-02-11T11:18:49.102Z,976.08
2023-02-11T11:19:49.222Z,976.06
2023-02-11T11:20:49.578Z,976.09
2023-02-11T11:21:49.165Z,976.06
2023-02-11T11:22:49.124Z,976.14
2023-02-11T11:23:49.066Z,976.14
2023-02-11T11:24:49.056Z,976.19
2023-02-11T11:25:49.091Z,976.26
2023-02-11T11:26:49.021Z,976.28
2023-02-11T11:27:49.132Z,976.32
2023-02-11T11:28:49.061Z,976.33
2023-02-11T11:29:48.994Z,976.31
2023-02-11T11:30:49.409Z,976.34
2023-02-11T11:31:49.094Z,976.31
2023-02-11T11:32:48.957Z,976.35
2023-02-11T11:33:48.965Z,976.37
2023-02-11T11:34:48.978Z,976.48
2023-02-11T11:35:48.929Z,976.40
2023-02-11T11:36:48.913Z,976.37
2023-02-11T11:37:48.912Z,976.41
2023-02-11T11:38:48.926Z,976.39
2023-02-11T11:39:48.879Z,976.32
2023-02-11T11:40:49.201Z,976.38
2023-02-11T11:41:48.859Z,976.42
2023-02-11T11:42:48.860Z,976.45
2023-02-11T11:43:48.863Z,976.38
2023-02-11T11:44:48.857Z,976.39
2023-02-11T11:45:48.829Z,976.38
2023-02-11T11:46:48.825Z,976.39
2023-02-11T11:47:48.816Z,976.41
2023-02-11T11:48:48.770Z,976.45
2023-02-11T11:49:48.854Z,976.44
2023-02-11T11:50:49.094Z,976.52
2023-02-11T11:51:48.829Z,976.45
2023-02-11T11:52:48.729Z,976.51
2023-02-11T11:53:48.731Z,976.55
2023-02-11T11:54:48.760Z,976.54
2023-02-11T11:55:49.644Z,976.58
2023-02-11T11:56:48.692Z,976.63
2023-02-11T11:57:48.812Z,976.52
2023-02-11T11:58:49.457Z,976.61
2023-02-11T11:59:48.677Z,976.51
2023-02-11T12:00:48.972Z,976.49
2023-02-11T12:01:48.641Z,976.48
2023-02-11T12:02:48.665Z,976.49
2023-02-11T12:03:48.981Z,976.53
2023-02-11T12:04:48.619Z,976.55
2023-02-11T12:05:48.822Z,976.53
2023-02-11T12:06:48.893Z,976.59
2023-02-11T12:07:48.892Z,976.61
2023-02-11T12:08:48.902Z,976.60
2023-02-11T12:09:48.559Z,976.60
2023-02-11T12:10:48.931Z,976.67
2023-02-11T12:11:48.547Z,976.68
2023-02-11T12:12:48.529Z,976.79
2023-02-11T12:13:48.542Z,976.77
2023-02-11T12:14:48.550Z,976.80
2023-02-11T12:15:48.490Z,976.85
2023-02-11T12:16:48.557Z,976.80
2023-02-11T12:17:48.466Z,976.81
2023-02-11T12:18:48.487Z,976.81
2023-02-11T12:19:48.446Z,976.82
2023-02-11T12:20:48.892Z,976.85
2023-02-11T12:21:48.512Z,976.84
2023-02-11T12:22:48.416Z,976.83
2023-02-11T12:23:48.405Z,976.86
2023-02-11T12:24:48.497Z,976.90
2023-02-11T12:25:48.375Z,976.83
2023-02-11T12:26:48.400Z,976.84
2023-02-11T12:27:48.973Z,976.81
2023-02-11T12:28:49.972Z,976.85
2023-02-11T12:29:48.477Z,976.83